createdAt,value
2019-03-25T00:01:31.552Z,7.75
2019-03-25T00:03:57.863Z,7.55
2019-03-25T00:06:24.202Z,7.47
2019-03-25T00:09:03.273Z,7.50
2019-03-25T00:11:16.836Z,7.61
2019-03-25T00:13:43.133Z,7.60
2019-03-25T00:16:09.449Z,7.61
2019-03-25T00:18:35.761Z,7.63
2019-03-25T00:21:02.066Z,7.66
2019-03-25T00:23:28.369Z,7.66
2019-03-25T00:25:54.687Z,7.62
2019-03-25T00:28:21.007Z,7.59
2019-03-25T00:30:47.320Z,7.47
2019-03-25T00:33:13.628Z,7.33
2019-03-25T00:35:39.971Z,7.31
2019-03-25T00:38:06.274Z,7.10
2019-03-25T00:40:32.581Z,6.98
2019-03-25T00:42:58.888Z,6.88
2019-03-25T00:45:25.192Z,6.91
2019-03-25T00:47:51.499Z,6.90
2019-03-25T00:50:17.804Z,6.88
2019-03-25T00:52:44.107Z,6.87
2019-03-25T00:55:10.412Z,6.90
2019-03-25T00:57:36.720Z,6.92
2019-03-25T01:00:03.025Z,6.96
2019-03-25T01:02:29.371Z,7.06
2019-03-25T01:04:55.676Z,7.02
2019-03-25T01:07:21.981Z,6.93
2019-03-25T01:09:48.287Z,6.78
2019-03-25T01:12:14.596Z,6.56
2019-03-25T01:14:40.902Z,6.50
2019-03-25T01:17:07.209Z,6.54
2019-03-25T01:19:33.525Z,6.41
2019-03-25T01:21:59.835Z,6.46
2019-03-25T01:24:26.194Z,6.41
2019-03-25T01:26:52.499Z,6.34
2019-03-25T01:29:18.804Z,6.31
2019-03-25T01:31:45.132Z,6.34
2019-03-25T01:34:11.439Z,6.29
2019-03-25T01:36:37.743Z,6.27
2019-03-25T01:39:04.052Z,6.20
2019-03-25T01:41:30.364Z,6.00
2019-03-25T01:43:56.670Z,5.93
2019-03-25T01:46:22.975Z,5.80
2019-03-25T01:48:49.283Z,5.65
2019-03-25T01:51:15.592Z,5.53
2019-03-25T01:53:41.900Z,5.45
2019-03-25T01:56:08.210Z,5.43
2019-03-25T01:58:34.539Z,5.38
2019-03-25T02:01:00.845Z,5.43
2019-03-25T02:03:27.156Z,5.53
2019-03-25T02:05:53.465Z,5.41
2019-03-25T02:08:19.763Z,5.35
2019-03-25T02:10:46.066Z,5.40
2019-03-25T02:13:12.372Z,5.64
2019-03-25T02:15:38.681Z,5.59
2019-03-25T02:18:04.988Z,5.35
2019-03-25T02:20:31.328Z,5.29
2019-03-25T02:22:57.807Z,5.28
2019-03-25T02:25:25.662Z,5.33
2019-03-25T02:27:50.248Z,5.23
2019-03-25T02:30:16.545Z,5.17
2019-03-25T02:32:42.846Z,5.12
2019-03-25T02:35:09.168Z,5.07
2019-03-25T02:37:35.474Z,5.08
2019-03-25T02:40:01.773Z,5.11
2019-03-25T02:42:28.103Z,5.24
2019-03-25T02:44:54.404Z,5.27
2019-03-25T02:47:20.718Z,5.30
2019-03-25T02:49:47.022Z,5.38
2019-03-25T02:52:13.320Z,5.34
2019-03-25T02:54:39.624Z,5.22
2019-03-25T02:57:05.933Z,5.16
2019-03-25T02:59:32.244Z,4.97
2019-03-25T03:01:58.551Z,4.87
2019-03-25T03:04:24.875Z,5.04
2019-03-25T03:06:51.177Z,5.14
2019-03-25T03:09:17.490Z,5.15
2019-03-25T03:11:43.786Z,5.25
2019-03-25T03:14:10.098Z,5.29
2019-03-25T03:16:36.417Z,5.20
2019-03-25T03:19:02.716Z,5.34
2019-03-25T03:21:29.014Z,5.46
2019-03-25T03:23:55.317Z,5.60
2019-03-25T03:26:21.631Z,5.53
2019-03-25T03:28:47.932Z,5.44
2019-03-25T03:31:14.242Z,5.14
2019-03-25T03:33:40.549Z,4.91
2019-03-25T03:36:06.846Z,4.89
2019-03-25T03:38:33.153Z,4.81
2019-03-25T03:40:59.458Z,4.78
2019-03-25T03:43:25.810Z,4.77
2019-03-25T03:45:52.135Z,4.63
2019-03-25T03:48:18.412Z,4.51
2019-03-25T03:50:44.748Z,4.37
2019-03-25T03:53:11.052Z,4.26
2019-03-25T03:55:37.360Z,4.22
2019-03-25T03:58:03.661Z,4.23
2019-03-25T04:00:29.967Z,4.27
2019-03-25T04:02:56.275Z,4.23
2019-03-25T04:05:22.589Z,4.18
2019-03-25T04:07:48.900Z,4.06
2019-03-25T04:10:15.242Z,4.14
2019-03-25T04:12:41.532Z,4.09
2019-03-25T04:15:07.863Z,4.03
2019-03-25T04:17:34.169Z,4.16
2019-03-25T04:20:00.530Z,4.23
2019-03-25T04:22:26.787Z,4.23
2019-03-25T04:24:53.075Z,4.22
2019-03-25T04:27:19.378Z,4.28
2019-03-25T04:29:45.677Z,4.42
2019-03-25T04:32:12.016Z,4.35
2019-03-25T04:34:38.323Z,4.50
2019-03-25T04:37:04.635Z,4.70
2019-03-25T04:39:30.942Z,4.81
2019-03-25T04:41:57.247Z,4.87
2019-03-25T04:44:23.555Z,5.10
2019-03-25T04:46:49.858Z,5.38
2019-03-25T04:49:16.183Z,5.60
2019-03-25T04:51:44.737Z,5.71
2019-03-25T04:54:08.781Z,5.76
2019-03-25T04:56:39.783Z,5.79
2019-03-25T04:59:01.395Z,6.04
2019-03-25T05:01:27.723Z,6.23
2019-03-25T05:03:54.028Z,6.38
2019-03-25T05:06:20.331Z,6.48
2019-03-25T05:08:46.640Z,6.76
2019-03-25T05:11:12.937Z,6.94
2019-03-25T05:13:39.245Z,7.20
2019-03-25T05:16:05.546Z,7.40
2019-03-25T05:18:31.863Z,7.41
2019-03-25T05:20:58.158Z,7.50
2019-03-25T05:23:24.497Z,7.64
2019-03-25T05:25:50.805Z,7.67
2019-03-25T05:28:17.121Z,7.77
2019-03-25T05:30:43.428Z,7.96
2019-03-25T05:33:09.730Z,8.18
2019-03-25T05:35:36.043Z,8.48
2019-03-25T05:38:02.356Z,8.77
2019-03-25T05:40:28.661Z,8.66
2019-03-25T05:42:54.969Z,8.79
2019-03-25T05:45:21.331Z,8.83
2019-03-25T05:47:47.640Z,8.63
2019-03-25T05:50:13.945Z,8.70
2019-03-25T05:52:40.251Z,8.95
2019-03-25T05:55:06.563Z,9.35
2019-03-25T05:57:32.879Z,9.51
2019-03-25T05:59:59.186Z,9.73
2019-03-25T06:02:25.500Z,9.89
2019-03-25T06:04:51.805Z,10.15
2019-03-25T06:07:18.140Z,9.98
2019-03-25T06:09:44.440Z,9.90
2019-03-25T06:12:10.745Z,9.70
2019-03-25T06:14:37.047Z,9.62
2019-03-25T06:17:03.352Z,10.02
2019-03-25T06:19:29.663Z,10.03
2019-03-25T06:21:55.962Z,9.87
2019-03-25T06:24:22.292Z,9.95
2019-03-25T06:26:48.606Z,10.17
2019-03-25T06:29:14.916Z,10.29
2019-03-25T06:31:41.225Z,10.45
2019-03-25T06:34:07.680Z,10.78
2019-03-25T06:36:33.991Z,10.88
2019-03-25T06:39:00.308Z,11.20
2019-03-25T06:41:26.627Z,11.33
2019-03-25T06:43:52.926Z,11.38
2019-03-25T06:46:19.233Z,11.48
2019-03-25T06:48:45.546Z,11.56
2019-03-25T06:51:11.852Z,11.60
2019-03-25T06:53:38.167Z,11.67
2019-03-25T06:56:04.582Z,12.07
2019-03-25T06:58:30.925Z,12.56
2019-03-25T07:00:57.237Z,12.43
2019-03-25T07:03:23.543Z,12.41
2019-03-25T07:05:49.882Z,12.51
2019-03-25T07:08:16.188Z,13.12
2019-03-25T07:10:42.501Z,13.04
2019-03-25T07:13:08.808Z,12.72
2019-03-25T07:15:35.118Z,12.91
2019-03-25T07:18:01.428Z,13.26
2019-03-25T07:20:27.782Z,13.55
2019-03-25T07:22:54.061Z,13.63
2019-03-25T07:25:20.417Z,13.67
2019-03-25T07:27:46.721Z,13.55
2019-03-25T07:30:13.062Z,13.52
2019-03-25T07:32:39.335Z,13.99
2019-03-25T07:35:05.715Z,13.66
2019-03-25T07:37:32.029Z,13.98
2019-03-25T07:39:58.333Z,14.41
2019-03-25T07:42:24.645Z,14.62
2019-03-25T07:44:50.953Z,14.80
2019-03-25T07:47:17.265Z,14.74
2019-03-25T07:49:43.572Z,14.80
2019-03-25T07:52:09.896Z,14.64
2019-03-25T07:54:36.216Z,14.95
2019-03-25T07:57:02.586Z,15.25
2019-03-25T07:59:28.878Z,15.76
2019-03-25T08:01:55.178Z,15.95
2019-03-25T08:04:21.487Z,16.01
2019-03-25T08:06:47.805Z,16.24
2019-03-25T08:09:14.109Z,16.48
2019-03-25T08:11:40.406Z,16.37
2019-03-25T08:14:06.751Z,16.73
2019-03-25T08:16:33.056Z,16.92
2019-03-25T08:18:59.392Z,16.83
2019-03-25T08:21:25.714Z,16.58
2019-03-25T08:23:52.022Z,16.69
2019-03-25T08:26:18.348Z,16.54
2019-03-25T08:28:44.764Z,16.68
2019-03-25T08:31:11.197Z,16.69
2019-03-25T08:33:37.505Z,16.26
2019-03-25T08:36:03.807Z,16.34
2019-03-25T08:38:30.123Z,17.00
2019-03-25T08:40:56.428Z,17.33
2019-03-25T08:43:22.794Z,17.31
2019-03-25T08:45:49.045Z,17.67
2019-03-25T08:48:15.357Z,18.00
2019-03-25T08:50:41.664Z,18.11
2019-03-25T08:53:07.987Z,18.59
2019-03-25T08:55:34.290Z,18.92
2019-03-25T08:58:11.494Z,18.77
2019-03-25T09:00:27.034Z,18.25
2019-03-25T09:02:53.281Z,18.25
2019-03-25T09:05:19.623Z,18.60
2019-03-25T09:07:45.929Z,18.62
2019-03-25T09:10:12.232Z,18.71
2019-03-25T09:12:38.543Z,18.92
2019-03-25T09:15:04.857Z,19.00
2019-03-25T09:17:31.360Z,18.06
2019-03-25T09:19:57.833Z,18.02
2019-03-25T09:22:24.140Z,18.77
2019-03-25T09:24:50.447Z,19.35
2019-03-25T09:27:16.751Z,19.62
2019-03-25T09:29:43.190Z,19.55
2019-03-25T09:32:09.530Z,19.66
2019-03-25T09:34:35.832Z,19.99
2019-03-25T09:37:02.144Z,19.70
2019-03-25T09:39:28.493Z,19.95
2019-03-25T09:41:54.792Z,19.94
2019-03-25T09:44:21.102Z,19.68
2019-03-25T09:52:07.038Z,20.81
2019-03-25T09:54:33.360Z,20.67
2019-03-25T09:56:59.662Z,20.71
2019-03-25T09:59:26.124Z,20.83
2019-03-25T10:01:52.429Z,21.05
2019-03-25T10:04:20.105Z,21.48
2019-03-25T10:06:45.081Z,21.56
2019-03-25T10:09:11.429Z,21.47
2019-03-25T10:11:37.738Z,21.23
2019-03-25T10:14:04.047Z,21.54
2019-03-25T10:16:30.356Z,21.94
2019-03-25T10:18:56.667Z,22.20
2019-03-25T10:21:22.981Z,22.53
2019-03-25T10:23:49.309Z,22.33
2019-03-25T10:26:15.638Z,22.43
2019-03-25T10:28:48.550Z,22.98
2019-03-25T10:31:08.258Z,22.82
2019-03-25T10:33:34.577Z,22.93
2019-03-25T10:36:00.888Z,22.96
2019-03-25T10:38:27.223Z,23.21
2019-03-25T10:40:53.533Z,22.88
2019-03-25T10:43:20.336Z,23.15
2019-03-25T10:45:46.665Z,23.06
2019-03-25T10:48:13.006Z,23.74
2019-03-25T10:50:39.310Z,23.86
2019-03-25T10:53:05.627Z,24.15
2019-03-25T10:55:31.942Z,24.08
2019-03-25T10:57:58.248Z,24.07
2019-03-25T11:00:24.566Z,23.98
2019-03-25T11:02:50.868Z,24.00
2019-03-25T11:05:17.179Z,23.65
2019-03-25T11:07:43.530Z,24.04
2019-03-25T11:10:09.794Z,24.41
2019-03-25T11:12:36.115Z,25.02
2019-03-25T11:15:02.421Z,25.15
2019-03-25T11:17:28.733Z,24.82
2019-03-25T11:19:55.037Z,25.01
2019-03-25T11:22:21.349Z,24.38
2019-03-25T11:24:47.669Z,24.68
2019-03-25T11:27:14.021Z,24.82
2019-03-25T11:29:40.330Z,25.40
2019-03-25T11:32:06.631Z,25.49
2019-03-25T11:34:32.959Z,25.57
2019-03-25T11:36:59.260Z,25.75
2019-03-25T11:39:25.611Z,25.44
2019-03-25T11:41:51.916Z,25.57
2019-03-25T11:44:18.252Z,25.09
2019-03-25T11:46:44.557Z,25.18
2019-03-25T11:49:10.894Z,25.12
2019-03-25T11:51:37.211Z,25.31
2019-03-25T11:54:03.524Z,25.36
2019-03-25T11:56:29.834Z,25.46
2019-03-25T11:58:56.139Z,25.57
2019-03-25T12:01:22.454Z,25.41
2019-03-25T12:03:48.752Z,25.87
2019-03-25T12:06:15.072Z,26.03
2019-03-25T12:08:41.385Z,25.90
2019-03-25T12:11:07.694Z,25.86
2019-03-25T12:13:34.055Z,26.26
2019-03-25T12:16:00.313Z,26.46
2019-03-25T12:18:26.633Z,26.64
2019-03-25T12:20:52.947Z,26.54
2019-03-25T12:23:26.233Z,26.61
2019-03-25T12:25:45.568Z,26.27
2019-03-25T12:28:11.908Z,26.53
2019-03-25T12:30:38.211Z,26.59
2019-03-25T12:33:04.597Z,26.80
2019-03-25T12:35:30.869Z,26.03
2019-03-25T12:37:57.224Z,26.26
2019-03-25T12:40:23.502Z,26.08
2019-03-25T12:42:49.808Z,25.76
2019-03-25T12:45:16.122Z,25.75
2019-03-25T12:47:42.425Z,25.80
2019-03-25T12:50:08.745Z,26.01
2019-03-25T12:52:35.066Z,25.32
2019-03-25T12:55:01.412Z,24.30
2019-03-25T12:57:27.771Z,23.63
2019-03-25T12:59:54.038Z,23.31
2019-03-25T13:02:20.365Z,23.46
2019-03-25T13:04:46.681Z,23.37
2019-03-25T13:07:12.997Z,23.29
2019-03-25T13:09:39.345Z,23.19
2019-03-25T13:12:05.622Z,23.34
2019-03-25T13:14:31.931Z,23.38
2019-03-25T13:16:58.300Z,23.37
2019-03-25T13:19:24.548Z,23.14
2019-03-25T13:21:50.857Z,23.09
2019-03-25T13:24:19.257Z,23.27
2019-03-25T13:26:43.486Z,23.26
2019-03-25T13:29:09.801Z,23.44
2019-03-25T13:31:36.122Z,23.46
2019-03-25T13:34:02.433Z,23.45
2019-03-25T13:36:28.752Z,23.24
2019-03-25T13:38:55.113Z,22.82
2019-03-25T13:41:21.416Z,22.60
2019-03-25T13:43:47.722Z,22.60
2019-03-25T13:46:14.033Z,22.55
2019-03-25T13:48:40.344Z,22.45
2019-03-25T13:51:06.698Z,22.40
2019-03-25T13:53:32.975Z,22.46
2019-03-25T13:55:59.289Z,22.30
2019-03-25T13:58:25.593Z,22.23
2019-03-25T14:00:51.951Z,22.19
2019-03-25T14:03:18.256Z,22.11
2019-03-25T14:05:44.564Z,22.02
2019-03-25T14:08:10.877Z,22.03
2019-03-25T14:10:37.185Z,22.16
2019-03-25T14:13:03.494Z,22.26
2019-03-25T14:15:29.799Z,22.45
2019-03-25T14:17:56.135Z,22.48
2019-03-25T14:20:22.440Z,22.46
2019-03-25T14:22:48.743Z,22.44
2019-03-25T14:25:15.052Z,22.30
2019-03-25T14:27:41.381Z,22.27
2019-03-25T14:30:14.367Z,22.21
2019-03-25T14:32:33.988Z,22.19
2019-03-25T14:35:00.366Z,22.21
2019-03-25T14:37:26.607Z,22.28
2019-03-25T14:39:52.916Z,22.39
2019-03-25T14:42:19.229Z,22.43
2019-03-25T14:44:45.576Z,22.18
2019-03-25T14:47:11.923Z,22.13
2019-03-25T14:49:38.196Z,22.07
2019-03-25T14:52:04.511Z,21.94
2019-03-25T14:54:30.812Z,21.79
2019-03-25T14:56:57.120Z,21.74
2019-03-25T14:59:23.427Z,21.74
2019-03-25T15:01:49.742Z,21.73
2019-03-25T15:04:16.047Z,21.72
2019-03-25T15:06:42.386Z,21.72
2019-03-25T15:09:08.699Z,21.74
2019-03-25T15:11:34.999Z,21.72
2019-03-25T15:14:01.337Z,21.67
2019-03-25T15:16:27.644Z,21.64
2019-03-25T15:18:53.952Z,21.58
2019-03-25T15:21:20.291Z,21.53
2019-03-25T15:23:46.640Z,21.43
2019-03-25T15:26:12.903Z,21.43
2019-03-25T15:28:39.244Z,21.45
2019-03-25T15:31:05.540Z,21.43
2019-03-25T15:33:31.856Z,21.41
2019-03-25T15:35:58.163Z,21.39
2019-03-25T15:38:25.565Z,21.38
2019-03-25T15:40:50.787Z,21.33
2019-03-25T15:43:17.093Z,21.29
2019-03-25T15:45:43.405Z,21.23
2019-03-25T15:48:09.711Z,21.14
2019-03-25T15:50:36.049Z,21.11
2019-03-25T15:53:02.364Z,21.08
2019-03-25T15:55:28.678Z,21.05
2019-03-25T15:57:55.024Z,20.97
2019-03-25T16:00:21.332Z,20.90
2019-03-25T16:02:47.633Z,20.90
2019-03-25T16:05:13.943Z,20.89
2019-03-25T16:07:40.262Z,20.80
2019-03-25T16:10:06.587Z,20.72
2019-03-25T16:12:32.902Z,20.72
2019-03-25T16:14:59.359Z,20.65
2019-03-25T16:17:25.689Z,20.57
2019-03-25T16:19:52.165Z,20.45
2019-03-25T16:22:18.519Z,20.36
2019-03-25T16:24:44.816Z,20.24
2019-03-25T16:27:11.117Z,20.13
2019-03-25T16:29:37.434Z,20.02
2019-03-25T16:32:03.757Z,19.93
2019-03-25T16:34:30.665Z,19.84
2019-03-25T16:36:56.975Z,19.81
2019-03-25T16:39:23.292Z,19.71
2019-03-25T16:41:49.618Z,19.62
2019-03-25T16:44:15.973Z,19.58
2019-03-25T16:46:42.282Z,19.54
2019-03-25T16:49:08.591Z,19.48
2019-03-25T16:51:34.902Z,19.38
2019-03-25T16:54:01.214Z,19.39
2019-03-25T16:56:27.525Z,19.31
2019-03-25T16:58:53.835Z,19.26
2019-03-25T17:01:20.146Z,19.26
2019-03-25T17:03:46.454Z,19.28
2019-03-25T17:06:12.762Z,19.28
2019-03-25T17:08:39.089Z,19.18
2019-03-25T17:11:05.463Z,19.15
2019-03-25T17:13:31.730Z,19.06
2019-03-25T17:15:58.043Z,18.95
2019-03-25T17:18:24.388Z,18.84
2019-03-25T17:20:50.701Z,18.77
2019-03-25T17:23:17.049Z,18.70
2019-03-25T17:25:52.670Z,18.61
2019-03-25T17:28:09.673Z,18.52
2019-03-25T17:30:35.992Z,18.40
2019-03-25T17:33:02.314Z,18.31
2019-03-25T17:35:28.921Z,18.27
2019-03-25T17:37:55.224Z,18.20
2019-03-25T17:40:21.569Z,18.11
2019-03-25T17:42:47.846Z,18.03
2019-03-25T17:45:14.181Z,17.94
2019-03-25T17:47:44.946Z,17.82
2019-03-25T17:50:11.275Z,17.71
2019-03-25T17:52:37.587Z,17.67
2019-03-25T17:55:03.893Z,17.60
2019-03-25T17:57:30.209Z,17.46
2019-03-25T17:59:56.525Z,17.41
2019-03-25T18:02:22.837Z,17.35
2019-03-25T18:04:49.144Z,17.35
2019-03-25T18:07:15.461Z,17.31
2019-03-25T18:09:41.800Z,17.17
2019-03-25T18:12:08.225Z,17.06
2019-03-25T18:14:34.546Z,16.95
2019-03-25T18:17:00.853Z,16.86
2019-03-25T18:19:27.172Z,16.89
2019-03-25T18:21:53.503Z,16.90
2019-03-25T18:24:19.808Z,16.89
2019-03-25T18:26:46.117Z,16.82
2019-03-25T18:29:12.425Z,16.75
2019-03-25T18:31:43.471Z,16.68
2019-03-25T18:34:05.051Z,16.60
2019-03-25T18:36:31.356Z,16.48
2019-03-25T18:38:57.659Z,16.37
2019-03-25T18:41:24.013Z,16.32
2019-03-25T18:43:50.321Z,16.24
2019-03-25T18:46:16.656Z,16.10
2019-03-25T18:48:42.987Z,15.97
2019-03-25T18:51:09.278Z,15.81
2019-03-25T18:53:35.729Z,15.69
2019-03-25T18:56:02.183Z,15.62
2019-03-25T18:58:28.526Z,15.49
2019-03-25T19:00:54.808Z,15.43
2019-03-25T19:03:21.128Z,15.41
2019-03-25T19:05:47.448Z,15.28
2019-03-25T19:08:13.782Z,15.20
2019-03-25T19:10:40.091Z,15.10
2019-03-25T19:13:06.418Z,15.09
2019-03-25T19:15:32.709Z,15.11
2019-03-25T19:17:59.055Z,15.00
2019-03-25T19:20:25.346Z,14.97
2019-03-25T19:22:51.659Z,14.92
2019-03-25T19:25:17.980Z,14.87
2019-03-25T19:27:44.331Z,14.85
2019-03-25T19:30:10.606Z,14.80
2019-03-25T19:32:37.065Z,14.76
2019-03-25T19:35:03.389Z,14.74
2019-03-25T19:37:29.766Z,14.64
2019-03-25T19:39:56.226Z,14.60
2019-03-25T19:42:22.535Z,14.58
2019-03-25T19:44:48.840Z,14.54
2019-03-25T19:47:15.171Z,14.50
2019-03-25T19:49:41.477Z,14.45
2019-03-25T19:52:09.489Z,14.28
2019-03-25T19:54:34.157Z,14.14
2019-03-25T19:57:00.514Z,14.06
2019-03-25T19:59:26.854Z,14.02
2019-03-25T20:01:53.102Z,13.94
2019-03-25T20:04:19.515Z,13.93
2019-03-25T20:06:45.871Z,13.92
2019-03-25T20:09:12.129Z,13.87
2019-03-25T20:11:38.449Z,13.90
2019-03-25T20:14:04.803Z,13.95
2019-03-25T20:16:31.139Z,13.81
2019-03-25T20:18:58.492Z,13.68
2019-03-25T20:21:24.800Z,13.63
2019-03-25T20:23:51.128Z,13.59
2019-03-25T20:26:17.444Z,13.63
2019-03-25T20:28:43.761Z,13.63
2019-03-25T20:31:10.064Z,13.58
2019-03-25T20:33:36.456Z,13.56
2019-03-25T20:36:02.817Z,13.50
2019-03-25T20:38:29.121Z,13.43
2019-03-25T20:40:55.473Z,13.42
2019-03-25T20:43:21.776Z,13.40
2019-03-25T20:45:48.104Z,13.44
2019-03-25T20:48:14.418Z,13.42
2019-03-25T20:50:40.816Z,13.42
2019-03-25T20:53:07.100Z,13.36
2019-03-25T20:55:33.382Z,13.29
2019-03-25T20:57:59.705Z,13.23
2019-03-25T21:00:25.977Z,13.19
2019-03-25T21:02:52.306Z,13.13
2019-03-25T21:05:18.603Z,13.09
2019-03-25T21:07:44.936Z,13.10
2019-03-25T21:10:11.314Z,13.10
2019-03-25T21:12:38.699Z,13.15
2019-03-25T21:15:03.931Z,13.14
2019-03-25T21:17:30.213Z,13.11
2019-03-25T21:19:56.554Z,13.10
2019-03-25T21:22:22.865Z,13.07
2019-03-25T21:24:49.214Z,13.03
2019-03-25T21:27:15.526Z,13.02
2019-03-25T21:29:41.869Z,12.98
2019-03-25T21:32:08.161Z,13.00
2019-03-25T21:34:34.509Z,12.99
2019-03-25T21:37:00.795Z,12.96
2019-03-25T21:39:27.134Z,12.94
2019-03-25T21:41:53.491Z,12.87
2019-03-25T21:44:19.873Z,12.77
2019-03-25T21:46:46.265Z,12.74
2019-03-25T21:49:12.491Z,12.73
2019-03-25T21:51:38.805Z,12.67
2019-03-25T21:54:05.110Z,12.62
2019-03-25T21:56:31.434Z,12.59
2019-03-25T21:59:00.319Z,12.61
2019-03-25T22:01:24.345Z,12.68
2019-03-25T22:03:50.653Z,12.73
2019-03-25T22:06:16.966Z,12.85
2019-03-25T22:08:43.283Z,12.86
2019-03-25T22:11:09.617Z,12.87
2019-03-25T22:13:35.910Z,12.86
2019-03-25T22:16:02.246Z,12.92
2019-03-25T22:18:30.713Z,12.94
2019-03-25T22:20:54.873Z,12.88
2019-03-25T22:23:21.185Z,12.82
2019-03-25T22:25:47.539Z,12.74
2019-03-25T22:28:13.853Z,12.78
2019-03-25T22:30:40.160Z,12.70
2019-03-25T22:33:06.474Z,12.65
2019-03-25T22:35:32.787Z,12.64
2019-03-25T22:37:59.131Z,12.56
2019-03-25T22:40:25.443Z,12.43
2019-03-25T22:42:51.748Z,12.36
2019-03-25T22:45:18.059Z,12.71
2019-03-25T22:47:44.365Z,13.01
2019-03-25T22:50:10.676Z,12.83
2019-03-25T22:52:36.981Z,12.70
2019-03-25T22:55:03.291Z,12.56
2019-03-25T22:57:29.596Z,12.48
2019-03-25T22:59:55.910Z,12.63
2019-03-25T23:02:22.275Z,12.45
2019-03-25T23:04:48.588Z,12.26
2019-03-25T23:07:14.896Z,12.07
2019-03-25T23:09:41.199Z,11.91
2019-03-25T23:12:07.506Z,11.81
2019-03-25T23:14:33.831Z,11.70
2019-03-25T23:17:00.141Z,11.44
2019-03-25T23:19:26.447Z,11.31
2019-03-25T23:21:52.767Z,11.19
2019-03-25T23:24:19.079Z,11.14
2019-03-25T23:26:45.392Z,11.13
2019-03-25T23:29:11.715Z,11.15
2019-03-25T23:31:38.022Z,11.12
2019-03-25T23:34:04.329Z,11.12
2019-03-25T23:36:30.637Z,11.11
2019-03-25T23:38:56.950Z,11.06
2019-03-25T23:41:23.264Z,10.99
2019-03-25T23:43:49.574Z,10.97
2019-03-25T23:46:15.885Z,10.91
2019-03-25T23:48:42.190Z,10.92
2019-03-25T23:51:08.521Z,10.90
2019-03-25T23:53:34.853Z,10.87
2019-03-25T23:56:01.155Z,10.79
2019-03-25T23:58:27.466Z,10.74
